PWSweather.com
Personal Weather Stations
Station Observations
MICROSHIP
Friday Harbor, Friday Harbor, WA 98250

Friday HarborFriday Harbor, WA 98250

Lat: 48.538, Lon: -123.016

Elevation: 16

Station Type: Ambient Weather WS-1001-WIFI ObserverIP

https://microship.com/

Latest ConditionsUpdated 5:00:00 PM PST Sunday, Jan 19, 2020
Currently Today's Max Today's Min Today's Average
Temperature 49.8°F9.9°C 51.3°F10.7°C 46.9°F8.3°C 48.7°F9.3°C
Dew Point 4.9°F-15.1°C 4.9°F-15.1°C -36.6°F-38.1°C -11.2°F-24.0°C
Winds Calm Calm 11.0 mph -17.7 kmh - - 4.6 mph 7.4 kmh
Wind Gusts 2.5 mph4.0 kmh 22.4 mph36.0 kmh - -
Humidity 16% 16% 2% 8%
Pressure 30.25 in1024.4 mb 30.42 in1030.1 mb 30.25 in1024.4 mb -
Hour Temp Dew Point Humidity Winds Wind Gusts Pressure Precip Precip Rate Daily Precip Total
05:00 PM 49.8°F9.9°C 4.9°F-15.1°C 16% Calm Calm 2.5 mph4.0 kmh 30.25 in1024.4 mb 0.00 in0.0 mm 0.00 in0.0 mm 0.00 in0.0 mm
04:55 PM 49.8°F9.9°C 3.3°F-15.9°C 14% Calm Calm -- 30.25 in1024.4 mb 0.00 in0.0 mm 0.00 in0.0 mm 0.00 in0.0 mm
04:50 PM 50.0°F10.0°C 4.0°F-15.6°C 15% 0.5 mph WNW0.8 kmh WNW 2.5 mph4.0 kmh 30.26 in1024.7 mb 0.00 in0.0 mm 0.00 in0.0 mm 0.00 in0.0 mm
04:45 PM 50.0°F10.0°C 2.0°F-16.7°C 14% 0.8 mph WNW1.3 kmh WNW 2.5 mph4.0 kmh 30.26 in1024.7 mb 0.00 in0.0 mm 0.00 in0.0 mm 0.00 in0.0 mm
04:40 PM 50.0°F10.0°C 2.7°F-16.3°C 14% 0.2 mph N0.3 kmh N 2.5 mph4.0 kmh 30.26 in1024.7 mb 0.00 in0.0 mm 0.00 in0.0 mm 0.00 in0.0 mm
04:35 PM 50.2°F10.1°C 4.0°F-15.6°C 15% 1.1 mph NNW1.8 kmh NNW 4.9 mph7.9 kmh 30.26 in1024.7 mb 0.00 in0.0 mm 0.00 in0.0 mm 0.00 in0.0 mm
04:30 PM 50.5°F10.3°C 4.6°F-15.2°C 15% Calm Calm 2.5 mph4.0 kmh 30.27 in1025.1 mb 0.00 in0.0 mm 0.00 in0.0 mm 0.00 in0.0 mm
04:25 PM 50.7°F10.4°C 4.8°F-15.1°C 15% Calm Calm -- 30.27 in1025.1 mb 0.00 in0.0 mm 0.00 in0.0 mm 0.00 in0.0 mm
04:20 PM 50.9°F10.5°C 3.0°F-16.1°C 14% Calm Calm 2.5 mph4.0 kmh 30.27 in1025.1 mb 0.00 in0.0 mm 0.00 in0.0 mm 0.00 in0.0 mm
04:15 PM 51.1°F10.6°C 3.5°F-15.8°C 14% Calm Calm 2.5 mph4.0 kmh 30.27 in1025.1 mb 0.00 in0.0 mm 0.00 in0.0 mm 0.00 in0.0 mm
04:10 PM 51.3°F10.7°C 0.9°F-17.3°C 12% 0.1 mph N0.2 kmh N 2.5 mph4.0 kmh 30.27 in1025.1 mb 0.00 in0.0 mm 0.00 in0.0 mm 0.00 in0.0 mm
04:05 PM 51.3°F10.7°C -4.7°F-20.4°C 9% 0.9 mph E1.4 kmh E 4.9 mph7.9 kmh 30.27 in1025.1 mb 0.00 in0.0 mm 0.00 in0.0 mm 0.00 in0.0 mm
04:00 PM 51.2°F10.7°C -4.8°F-20.4°C 9% 2.3 mph E3.7 kmh E 4.9 mph7.9 kmh 30.27 in1025.1 mb 0.00 in0.0 mm 0.00 in0.0 mm 0.00 in0.0 mm
03:55 PM 51.1°F10.6°C -2.9°F-19.4°C 10% 3.4 mph E5.5 kmh E 7.4 mph11.9 kmh 30.27 in1025.1 mb 0.00 in0.0 mm 0.00 in0.0 mm 0.00 in0.0 mm
03:50 PM 51.1°F10.6°C -3.6°F-19.8°C 10% 3.9 mph E6.3 kmh E 7.4 mph11.9 kmh 30.27 in1025.1 mb 0.00 in0.0 mm 0.00 in0.0 mm 0.00 in0.0 mm
03:45 PM 51.0°F10.6°C -5.4°F-20.8°C 9% 5.3 mph ESE8.5 kmh ESE 9.8 mph15.8 kmh 30.28 in1025.4 mb 0.00 in0.0 mm 0.00 in0.0 mm 0.00 in0.0 mm
03:40 PM 50.7°F10.4°C -5.8°F-21.0°C 9% 6.6 mph ESE10.6 kmh ESE 9.8 mph15.8 kmh 30.28 in1025.4 mb 0.00 in0.0 mm 0.00 in0.0 mm 0.00 in0.0 mm
03:35 PM 50.5°F10.3°C -0.5°F-18.1°C 12% 5.0 mph E8.0 kmh E 9.8 mph15.8 kmh 30.28 in1025.4 mb 0.00 in0.0 mm 0.00 in0.0 mm 0.00 in0.0 mm
03:30 PM 50.7°F10.4°C -3.0°F-19.4°C 10% 5.0 mph ESE8.0 kmh ESE 12.3 mph19.8 kmh 30.28 in1025.4 mb 0.00 in0.0 mm 0.00 in0.0 mm 0.00 in0.0 mm
03:25 PM 50.7°F10.4°C -3.2°F-19.6°C 10% 3.8 mph SE6.1 kmh SE 7.4 mph11.9 kmh 30.28 in1025.4 mb 0.00 in0.0 mm 0.00 in0.0 mm 0.00 in0.0 mm
03:20 PM 50.8°F10.4°C -2.0°F-18.9°C 11% 4.4 mph SE7.1 kmh SE 9.8 mph15.8 kmh 30.29 in1025.7 mb 0.00 in0.0 mm 0.00 in0.0 mm 0.00 in0.0 mm
03:15 PM 50.9°F10.5°C -1.1°F-18.4°C 11% 2.1 mph E3.4 kmh E 4.9 mph7.9 kmh 30.29 in1025.7 mb 0.00 in0.0 mm 0.00 in0.0 mm 0.00 in0.0 mm
03:10 PM 51.2°F10.7°C -0.9°F-18.3°C 11% 1.6 mph NE2.6 kmh NE 4.9 mph7.9 kmh 30.29 in1025.7 mb 0.00 in0.0 mm 0.00 in0.0 mm 0.00 in0.0 mm
03:05 PM 51.3°F10.7°C -1.6°F-18.7°C 11% Calm Calm -- 30.30 in1026.1 mb 0.00 in0.0 mm 0.00 in0.0 mm 0.00 in0.0 mm
03:00 PM 51.3°F10.7°C -5.3°F-20.7°C 9% 1.2 mph E1.9 kmh E 4.9 mph7.9 kmh 30.30 in1026.1 mb 0.00 in0.0 mm 0.00 in0.0 mm 0.00 in0.0 mm
02:55 PM 51.3°F10.7°C -7.7°F-22.1°C 8% 1.0 mph S1.6 kmh S 4.9 mph7.9 kmh 30.30 in1026.1 mb 0.00 in0.0 mm 0.00 in0.0 mm 0.00 in0.0 mm
02:50 PM 51.3°F10.7°C -8.0°F-22.2°C 8% Calm Calm -- 30.30 in1026.1 mb 0.00 in0.0 mm 0.00 in0.0 mm 0.00 in0.0 mm
02:45 PM 51.1°F10.6°C -8.1°F-22.3°C 8% 1.8 mph SSE2.9 kmh SSE 7.4 mph11.9 kmh 30.30 in1026.1 mb 0.00 in0.0 mm 0.00 in0.0 mm 0.00 in0.0 mm
02:40 PM 51.1°F10.6°C -10.0°F-23.3°C 7% 2.1 mph SE3.4 kmh SE 7.4 mph11.9 kmh 30.30 in1026.1 mb 0.00 in0.0 mm 0.00 in0.0 mm 0.00 in0.0 mm
02:35 PM 51.1°F10.6°C -11.1°F-23.9°C 7% 2.4 mph SE3.9 kmh SE 4.9 mph7.9 kmh 30.30 in1026.1 mb 0.00 in0.0 mm 0.00 in0.0 mm 0.00 in0.0 mm
02:30 PM 51.1°F10.6°C -11.3°F-24.1°C 7% 6.1 mph SE9.8 kmh SE 9.8 mph15.8 kmh 30.30 in1026.1 mb 0.00 in0.0 mm 0.00 in0.0 mm 0.00 in0.0 mm
02:25 PM 51.1°F10.6°C -14.8°F-26.0°C 6% 6.5 mph SE10.5 kmh SE 12.3 mph19.8 kmh 30.31 in1026.4 mb 0.00 in0.0 mm 0.00 in0.0 mm 0.00 in0.0 mm
02:20 PM 51.0°F10.6°C -17.5°F-27.5°C 5% 3.8 mph ESE6.1 kmh ESE 9.8 mph15.8 kmh 30.31 in1026.4 mb 0.00 in0.0 mm 0.00 in0.0 mm 0.00 in0.0 mm
02:15 PM 50.9°F10.5°C -17.6°F-27.6°C 5% 6.3 mph SE10.1 kmh SE 12.3 mph19.8 kmh 30.31 in1026.4 mb 0.00 in0.0 mm 0.00 in0.0 mm 0.00 in0.0 mm
02:10 PM 50.9°F10.5°C -20.1°F-28.9°C 4% 5.8 mph ESE9.3 kmh ESE 12.3 mph19.8 kmh 30.30 in1026.1 mb 0.00 in0.0 mm 0.00 in0.0 mm 0.00 in0.0 mm
02:05 PM 50.9°F10.5°C -22.3°F-30.2°C 4% 6.7 mph ESE10.8 kmh ESE 12.3 mph19.8 kmh 30.30 in1026.1 mb 0.00 in0.0 mm 0.00 in0.0 mm 0.00 in0.0 mm
02:00 PM 50.9°F10.5°C -24.3°F-31.3°C 4% 6.7 mph ESE10.8 kmh ESE 12.3 mph19.8 kmh 30.31 in1026.4 mb 0.00 in0.0 mm 0.00 in0.0 mm 0.00 in0.0 mm
01:55 PM 50.9°F10.5°C -30.1°F-34.5°C 3% 8.0 mph SE12.9 kmh SE 15.0 mph24.1 kmh 30.31 in1026.4 mb 0.00 in0.0 mm 0.00 in0.0 mm 0.00 in0.0 mm
01:15 PM 49.8°F9.9°C -35.7°F-37.6°C 2% 6.6 mph ESE10.6 kmh ESE 9.8 mph15.8 kmh 30.32 in1026.8 mb 0.00 in0.0 mm 0.00 in0.0 mm 0.00 in0.0 mm
01:10 PM 49.5°F9.7°C -26.1°F-32.3°C 4% 7.0 mph SE11.3 kmh SE 17.4 mph28.0 kmh 30.33 in1027.1 mb 0.00 in0.0 mm 0.00 in0.0 mm 0.00 in0.0 mm
01:05 PM 49.5°F9.7°C -8.1°F-22.3°C 9% 1.5 mph ENE2.4 kmh ENE 4.9 mph7.9 kmh 30.33 in1027.1 mb 0.00 in0.0 mm 0.00 in0.0 mm 0.00 in0.0 mm
01:00 PM 49.5°F9.7°C -4.7°F-20.4°C 10% Calm Calm -- 30.33 in1027.1 mb 0.00 in0.0 mm 0.00 in0.0 mm 0.00 in0.0 mm
12:55 PM 49.5°F9.7°C -16.3°F-26.8°C 6% 0.5 mph NNE0.8 kmh NNE 2.5 mph4.0 kmh 30.34 in1027.4 mb 0.00 in0.0 mm 0.00 in0.0 mm 0.00 in0.0 mm
12:50 PM 49.5°F9.7°C -13.6°F-25.3°C 6% 1.0 mph ENE1.6 kmh ENE 2.5 mph4.0 kmh 30.34 in1027.4 mb 0.00 in0.0 mm 0.00 in0.0 mm 0.00 in0.0 mm
12:45 PM 49.3°F9.6°C -15.1°F-26.2°C 6% 0.8 mph N1.3 kmh N 4.9 mph7.9 kmh 30.34 in1027.4 mb 0.00 in0.0 mm 0.00 in0.0 mm 0.00 in0.0 mm
12:40 PM 49.3°F9.6°C -14.6°F-25.9°C 6% 0.2 mph NE0.3 kmh NE 2.5 mph4.0 kmh 30.34 in1027.4 mb 0.00 in0.0 mm 0.00 in0.0 mm 0.00 in0.0 mm
12:35 PM 49.4°F9.7°C -12.8°F-24.9°C 7% 1.8 mph NW2.9 kmh NW 4.9 mph7.9 kmh 30.35 in1027.8 mb 0.00 in0.0 mm 0.00 in0.0 mm 0.00 in0.0 mm
12:30 PM 49.5°F9.7°C -10.2°F-23.4°C 8% 0.6 mph NW1.0 kmh NW 4.9 mph7.9 kmh 30.35 in1027.8 mb 0.00 in0.0 mm 0.00 in0.0 mm 0.00 in0.0 mm
12:25 PM 49.6°F9.8°C -9.3°F-22.9°C 8% 0.3 mph N0.5 kmh N 2.5 mph4.0 kmh 30.35 in1027.8 mb 0.00 in0.0 mm 0.00 in0.0 mm 0.00 in0.0 mm
12:20 PM 49.6°F9.8°C -11.8°F-24.3°C 7% Calm Calm -- 30.35 in1027.8 mb 0.00 in0.0 mm 0.00 in0.0 mm 0.00 in0.0 mm
12:15 PM 49.8°F9.9°C -10.5°F-23.6°C 8% 0.7 mph NE1.1 kmh NE 2.5 mph4.0 kmh 30.35 in1027.8 mb 0.00 in0.0 mm 0.00 in0.0 mm 0.00 in0.0 mm
12:10 PM 50.0°F10.0°C -18.4°F-28.0°C 5% 2.3 mph NE3.7 kmh NE 4.9 mph7.9 kmh 30.35 in1027.8 mb 0.00 in0.0 mm 0.00 in0.0 mm 0.00 in0.0 mm
12:05 PM 50.0°F10.0°C -20.4°F-29.1°C 4% 2.6 mph NE4.2 kmh NE 7.4 mph11.9 kmh 30.35 in1027.8 mb 0.00 in0.0 mm 0.00 in0.0 mm 0.00 in0.0 mm
12:00 PM 49.8°F9.9°C -23.1°F-30.6°C 4% 3.5 mph ENE5.6 kmh ENE 7.4 mph11.9 kmh 30.35 in1027.8 mb 0.00 in0.0 mm 0.00 in0.0 mm 0.00 in0.0 mm
11:55 AM 49.7°F9.8°C -21.5°F-29.7°C 4% 0.2 mph NE0.3 kmh NE 2.5 mph4.0 kmh 30.35 in1027.8 mb 0.00 in0.0 mm 0.00 in0.0 mm 0.00 in0.0 mm
11:50 AM 49.5°F9.7°C -23.4°F-30.8°C 4% 2.6 mph E4.2 kmh E 4.9 mph7.9 kmh 30.35 in1027.8 mb 0.00 in0.0 mm 0.00 in0.0 mm 0.00 in0.0 mm
11:45 AM 49.2°F9.6°C -36.6°F-38.1°C 2% 5.5 mph SE8.9 kmh SE 9.8 mph15.8 kmh 30.35 in1027.8 mb 0.00 in0.0 mm 0.00 in0.0 mm 0.00 in0.0 mm
11:40 AM 48.8°F9.3°C -31.0°F-35.0°C 3% 7.7 mph E12.4 kmh E 12.3 mph19.8 kmh 30.35 in1027.8 mb 0.00 in0.0 mm 0.00 in0.0 mm 0.00 in0.0 mm
11:35 AM 48.6°F9.2°C -21.0°F-29.4°C 5% 5.8 mph E9.3 kmh E 9.8 mph15.8 kmh 30.35 in1027.8 mb 0.00 in0.0 mm 0.00 in0.0 mm 0.00 in0.0 mm
11:30 AM 48.3°F9.1°C -13.7°F-25.4°C 7% 5.8 mph E9.3 kmh E 9.8 mph15.8 kmh 30.35 in1027.8 mb 0.00 in0.0 mm 0.00 in0.0 mm 0.00 in0.0 mm
11:25 AM 48.2°F9.0°C -9.9°F-23.3°C 8% 2.7 mph E4.3 kmh E 7.4 mph11.9 kmh 30.36 in1028.1 mb 0.00 in0.0 mm 0.00 in0.0 mm 0.00 in0.0 mm
11:20 AM 48.0°F8.9°C -7.0°F-21.7°C 10% 4.4 mph E7.1 kmh E 9.8 mph15.8 kmh 30.36 in1028.1 mb 0.00 in0.0 mm 0.00 in0.0 mm 0.00 in0.0 mm
11:15 AM 48.0°F8.9°C -4.0°F-20.0°C 11% 3.0 mph ESE4.8 kmh ESE 7.4 mph11.9 kmh 30.36 in1028.1 mb 0.00 in0.0 mm 0.00 in0.0 mm 0.00 in0.0 mm
11:10 AM 48.0°F8.9°C -4.3°F-20.2°C 11% 2.0 mph E3.2 kmh E 4.9 mph7.9 kmh 30.36 in1028.1 mb 0.00 in0.0 mm 0.00 in0.0 mm 0.00 in0.0 mm
11:05 AM 48.0°F8.9°C -6.0°F-21.1°C 10% 3.6 mph E5.8 kmh E 7.4 mph11.9 kmh 30.36 in1028.1 mb 0.00 in0.0 mm 0.00 in0.0 mm 0.00 in0.0 mm
11:00 AM 48.1°F8.9°C -5.7°F-20.9°C 10% 4.0 mph ENE6.4 kmh ENE 7.4 mph11.9 kmh 30.36 in1028.1 mb 0.00 in0.0 mm 0.00 in0.0 mm 0.00 in0.0 mm
10:55 AM 48.2°F9.0°C -7.0°F-21.7°C 9% 4.8 mph E7.7 kmh E 9.8 mph15.8 kmh 30.36 in1028.1 mb 0.00 in0.0 mm 0.00 in0.0 mm 0.00 in0.0 mm
10:50 AM 48.2°F9.0°C -7.1°F-21.7°C 9% 5.1 mph ENE8.2 kmh ENE 9.8 mph15.8 kmh 30.36 in1028.1 mb 0.00 in0.0 mm 0.00 in0.0 mm 0.00 in0.0 mm
10:45 AM 48.2°F9.0°C -8.2°F-22.3°C 9% 3.7 mph E6.0 kmh E 7.4 mph11.9 kmh 30.36 in1028.1 mb 0.00 in0.0 mm 0.00 in0.0 mm 0.00 in0.0 mm
10:40 AM 48.2°F9.0°C -11.1°F-23.9°C 8% 4.9 mph E7.9 kmh E 7.4 mph11.9 kmh 30.36 in1028.1 mb 0.00 in0.0 mm 0.00 in0.0 mm 0.00 in0.0 mm
10:35 AM 48.2°F9.0°C -15.6°F-26.4°C 6% 6.4 mph SE10.3 kmh SE 9.8 mph15.8 kmh 30.37 in1028.4 mb 0.00 in0.0 mm 0.00 in0.0 mm 0.00 in0.0 mm
10:30 AM 48.2°F9.0°C -18.0°F-27.8°C 5% 6.0 mph SE9.7 kmh SE 12.3 mph19.8 kmh 30.36 in1028.1 mb 0.00 in0.0 mm 0.00 in0.0 mm 0.00 in0.0 mm
10:25 AM 48.2°F9.0°C -11.0°F-23.9°C 8% 6.4 mph SE10.3 kmh SE 12.3 mph19.8 kmh 30.36 in1028.1 mb 0.00 in0.0 mm 0.00 in0.0 mm 0.00 in0.0 mm
10:20 AM 48.2°F9.0°C -15.8°F-26.6°C 6% 8.6 mph ESE13.8 kmh ESE 12.3 mph19.8 kmh 30.36 in1028.1 mb 0.00 in0.0 mm 0.00 in0.0 mm 0.00 in0.0 mm
10:15 AM 48.1°F8.9°C -23.1°F-30.6°C 4% 5.6 mph E9.0 kmh E 9.8 mph15.8 kmh 30.37 in1028.4 mb 0.00 in0.0 mm 0.00 in0.0 mm 0.00 in0.0 mm
10:10 AM 48.0°F8.9°C -18.9°F-28.3°C 5% 4.0 mph E6.4 kmh E 7.4 mph11.9 kmh 30.37 in1028.4 mb 0.00 in0.0 mm 0.00 in0.0 mm 0.00 in0.0 mm
10:05 AM 48.0°F8.9°C -23.1°F-30.6°C 4% 1.0 mph ESE1.6 kmh ESE 4.9 mph7.9 kmh 30.37 in1028.4 mb 0.00 in0.0 mm 0.00 in0.0 mm 0.00 in0.0 mm
10:00 AM 48.0°F8.9°C -25.2°F-31.8°C 4% 1.3 mph SE2.1 kmh SE 4.9 mph7.9 kmh 30.37 in1028.4 mb 0.00 in0.0 mm 0.00 in0.0 mm 0.00 in0.0 mm
09:55 AM 48.0°F8.9°C -23.7°F-30.9°C 4% 3.1 mph ESE5.0 kmh ESE 7.4 mph11.9 kmh 30.38 in1028.8 mb 0.00 in0.0 mm 0.00 in0.0 mm 0.00 in0.0 mm
09:50 AM 48.1°F8.9°C -21.7°F-29.8°C 5% 4.0 mph ESE6.4 kmh ESE 7.4 mph11.9 kmh 30.37 in1028.4 mb 0.00 in0.0 mm 0.00 in0.0 mm 0.00 in0.0 mm
09:45 AM 48.2°F9.0°C -27.1°F-32.8°C 3% 5.5 mph E8.9 kmh E 9.8 mph15.8 kmh 30.38 in1028.8 mb 0.00 in0.0 mm 0.00 in0.0 mm 0.00 in0.0 mm
09:40 AM 48.0°F8.9°C -28.3°F-33.5°C 3% 6.2 mph E10.0 kmh E 9.8 mph15.8 kmh 30.38 in1028.8 mb 0.00 in0.0 mm 0.00 in0.0 mm 0.00 in0.0 mm
09:35 AM 48.0°F8.9°C -19.6°F-28.7°C 5% 6.8 mph E10.9 kmh E 9.8 mph15.8 kmh 30.37 in1028.4 mb 0.00 in0.0 mm 0.00 in0.0 mm 0.00 in0.0 mm
09:30 AM 48.0°F8.9°C -20.3°F-29.1°C 5% 4.8 mph E7.7 kmh E 9.8 mph15.8 kmh 30.37 in1028.4 mb 0.00 in0.0 mm 0.00 in0.0 mm 0.00 in0.0 mm
09:25 AM 48.0°F8.9°C -19.9°F-28.8°C 5% 4.7 mph E7.6 kmh E 7.4 mph11.9 kmh 30.37 in1028.4 mb 0.00 in0.0 mm 0.00 in0.0 mm 0.00 in0.0 mm
09:20 AM 47.8°F8.8°C -22.9°F-30.5°C 4% 6.0 mph E9.7 kmh E 12.3 mph19.8 kmh 30.37 in1028.4 mb 0.00 in0.0 mm 0.00 in0.0 mm 0.00 in0.0 mm
09:15 AM 47.8°F8.8°C -18.2°F-27.9°C 5% 4.6 mph E7.4 kmh E 9.8 mph15.8 kmh 30.37 in1028.4 mb 0.00 in0.0 mm 0.00 in0.0 mm 0.00 in0.0 mm
09:10 AM 47.7°F8.7°C -12.5°F-24.7°C 7% 3.8 mph E6.1 kmh E 9.8 mph15.8 kmh 30.37 in1028.4 mb 0.00 in0.0 mm 0.00 in0.0 mm 0.00 in0.0 mm
09:05 AM 47.7°F8.7°C -7.8°F-22.1°C 9% 2.1 mph E3.4 kmh E 4.9 mph7.9 kmh 30.38 in1028.8 mb 0.00 in0.0 mm 0.00 in0.0 mm 0.00 in0.0 mm
09:00 AM 47.5°F8.6°C -10.0°F-23.3°C 8% 2.3 mph SE3.7 kmh SE 7.4 mph11.9 kmh 30.37 in1028.4 mb 0.00 in0.0 mm 0.00 in0.0 mm 0.00 in0.0 mm
08:55 AM 47.5°F8.6°C -8.0°F-22.2°C 9% 2.8 mph E4.5 kmh E 7.4 mph11.9 kmh 30.38 in1028.8 mb 0.00 in0.0 mm 0.00 in0.0 mm 0.00 in0.0 mm
08:50 AM 47.3°F8.5°C -5.6°F-20.9°C 10% 1.3 mph ESE2.1 kmh ESE 4.9 mph7.9 kmh 30.38 in1028.8 mb 0.00 in0.0 mm 0.00 in0.0 mm 0.00 in0.0 mm
08:45 AM 47.3°F8.5°C -6.5°F-21.4°C 10% 1.4 mph SE2.3 kmh SE 4.9 mph7.9 kmh 30.37 in1028.4 mb 0.00 in0.0 mm 0.00 in0.0 mm 0.00 in0.0 mm
08:40 AM 47.3°F8.5°C -8.2°F-22.3°C 9% Calm Calm 2.5 mph4.0 kmh 30.38 in1028.8 mb 0.00 in0.0 mm 0.00 in0.0 mm 0.00 in0.0 mm
08:35 AM 47.3°F8.5°C -8.6°F-22.6°C 9% Calm Calm -- 30.38 in1028.8 mb 0.00 in0.0 mm 0.00 in0.0 mm 0.00 in0.0 mm
08:30 AM 47.3°F8.5°C -6.3°F-21.3°C 10% 0.4 mph E0.6 kmh E 2.5 mph4.0 kmh 30.37 in1028.4 mb 0.00 in0.0 mm 0.00 in0.0 mm 0.00 in0.0 mm
08:25 AM 47.2°F8.4°C -6.9°F-21.6°C 10% 3.0 mph E4.8 kmh E 4.9 mph7.9 kmh 30.37 in1028.4 mb 0.00 in0.0 mm 0.00 in0.0 mm 0.00 in0.0 mm
08:20 AM 47.1°F8.4°C -8.2°F-22.3°C 9% 2.6 mph ESE4.2 kmh ESE 7.4 mph11.9 kmh 30.37 in1028.4 mb 0.00 in0.0 mm 0.00 in0.0 mm 0.00 in0.0 mm
08:15 AM 47.1°F8.4°C -10.5°F-23.6°C 8% 0.7 mph E1.1 kmh E 2.5 mph4.0 kmh 30.38 in1028.8 mb 0.00 in0.0 mm 0.00 in0.0 mm 0.00 in0.0 mm
08:10 AM 47.1°F8.4°C -11.4°F-24.1°C 8% 1.5 mph SE2.4 kmh SE 4.9 mph7.9 kmh 30.38 in1028.8 mb 0.00 in0.0 mm 0.00 in0.0 mm 0.00 in0.0 mm
08:05 AM 47.1°F8.4°C -10.6°F-23.7°C 8% 2.5 mph ESE4.0 kmh ESE 4.9 mph7.9 kmh 30.38 in1028.8 mb 0.00 in0.0 mm 0.00 in0.0 mm 0.00 in0.0 mm
08:00 AM 47.1°F8.4°C -11.4°F-24.1°C 8% 2.4 mph ESE3.9 kmh ESE 7.4 mph11.9 kmh 30.37 in1028.4 mb 0.00 in0.0 mm 0.00 in0.0 mm 0.00 in0.0 mm
07:55 AM 47.1°F8.4°C -10.3°F-23.5°C 8% 3.4 mph SE5.5 kmh SE 7.4 mph11.9 kmh 30.37 in1028.4 mb 0.00 in0.0 mm 0.00 in0.0 mm 0.00 in0.0 mm
07:50 AM 47.1°F8.4°C -6.9°F-21.6°C 10% 4.4 mph ESE7.1 kmh ESE 7.4 mph11.9 kmh 30.37 in1028.4 mb 0.00 in0.0 mm 0.00 in0.0 mm 0.00 in0.0 mm
07:45 AM 46.9°F8.3°C -7.6°F-22.0°C 10% 5.9 mph E9.5 kmh E 9.8 mph15.8 kmh 30.37 in1028.4 mb 0.00 in0.0 mm 0.00 in0.0 mm 0.00 in0.0 mm
07:40 AM 46.9°F8.3°C -11.2°F-24.0°C 8% 5.4 mph ESE8.7 kmh ESE 9.8 mph15.8 kmh 30.37 in1028.4 mb 0.00 in0.0 mm 0.00 in0.0 mm 0.00 in0.0 mm
07:35 AM 46.9°F8.3°C -12.0°F-24.4°C 8% 5.2 mph SE8.4 kmh SE 12.3 mph19.8 kmh 30.37 in1028.4 mb 0.00 in0.0 mm 0.00 in0.0 mm 0.00 in0.0 mm
07:30 AM 46.9°F8.3°C -8.9°F-22.7°C 9% 3.5 mph SE5.6 kmh SE 7.4 mph11.9 kmh 30.37 in1028.4 mb 0.00 in0.0 mm 0.00 in0.0 mm 0.00 in0.0 mm
07:25 AM 46.9°F8.3°C -5.8°F-21.0°C 10% 4.7 mph ESE7.6 kmh ESE 9.8 mph15.8 kmh 30.37 in1028.4 mb 0.00 in0.0 mm 0.00 in0.0 mm 0.00 in0.0 mm
07:20 AM 47.0°F8.3°C -0.7°F-18.2°C 13% 3.4 mph ESE5.5 kmh ESE 12.3 mph19.8 kmh 30.38 in1028.8 mb 0.00 in0.0 mm 0.00 in0.0 mm 0.00 in0.0 mm
07:15 AM 47.2°F8.4°C 2.6°F-16.3°C 15% 2.0 mph SSE3.2 kmh SSE 4.9 mph7.9 kmh 30.38 in1028.8 mb 0.00 in0.0 mm 0.00 in0.0 mm 0.00 in0.0 mm
07:10 AM 47.5°F8.6°C 1.6°F-16.9°C 15% 0.7 mph S1.1 kmh S 4.9 mph7.9 kmh 30.38 in1028.8 mb 0.00 in0.0 mm 0.00 in0.0 mm 0.00 in0.0 mm
07:05 AM 47.7°F8.7°C 0.9°F-17.3°C 14% 1.2 mph SSE1.9 kmh SSE 4.9 mph7.9 kmh 30.38 in1028.8 mb 0.00 in0.0 mm 0.00 in0.0 mm 0.00 in0.0 mm
07:00 AM 48.0°F8.9°C 1.1°F-17.2°C 14% 1.8 mph S2.9 kmh S 7.4 mph11.9 kmh 30.37 in1028.4 mb 0.00 in0.0 mm 0.00 in0.0 mm 0.00 in0.0 mm
06:55 AM 48.3°F9.1°C -0.5°F-18.1°C 13% 5.5 mph SSE8.9 kmh SSE 12.3 mph19.8 kmh 30.37 in1028.4 mb 0.00 in0.0 mm 0.00 in0.0 mm 0.00 in0.0 mm
06:50 AM 48.6°F9.2°C -4.5°F-20.3°C 10% 3.1 mph SSE5.0 kmh SSE 7.4 mph11.9 kmh 30.37 in1028.4 mb 0.00 in0.0 mm 0.00 in0.0 mm 0.00 in0.0 mm
06:45 AM 48.7°F9.3°C -6.6°F-21.4°C 9% 6.0 mph SE9.7 kmh SE 9.8 mph15.8 kmh 30.38 in1028.8 mb 0.00 in0.0 mm 0.00 in0.0 mm 0.00 in0.0 mm
06:40 AM 48.9°F9.4°C -8.2°F-22.3°C 9% 5.4 mph SE8.7 kmh SE 12.3 mph19.8 kmh 30.37 in1028.4 mb 0.00 in0.0 mm 0.00 in0.0 mm 0.00 in0.0 mm
06:35 AM 48.9°F9.4°C -9.8°F-23.2°C 8% 5.6 mph SE9.0 kmh SE 9.8 mph15.8 kmh 30.38 in1028.8 mb 0.00 in0.0 mm 0.00 in0.0 mm 0.00 in0.0 mm
06:30 AM 48.9°F9.4°C -10.3°F-23.5°C 8% 6.8 mph SE10.9 kmh SE 12.3 mph19.8 kmh 30.37 in1028.4 mb 0.00 in0.0 mm 0.00 in0.0 mm 0.00 in0.0 mm
06:25 AM 48.9°F9.4°C -12.2°F-24.6°C 7% 6.3 mph SE10.1 kmh SE 12.3 mph19.8 kmh 30.37 in1028.4 mb 0.00 in0.0 mm 0.00 in0.0 mm 0.00 in0.0 mm
06:20 AM 48.9°F9.4°C -12.4°F-24.7°C 7% 5.5 mph SE8.9 kmh SE 12.3 mph19.8 kmh 30.38 in1028.8 mb 0.00 in0.0 mm 0.00 in0.0 mm 0.00 in0.0 mm
06:15 AM 48.7°F9.3°C -12.6°F-24.8°C 7% 6.3 mph ESE10.1 kmh ESE 9.8 mph15.8 kmh 30.37 in1028.4 mb 0.00 in0.0 mm 0.00 in0.0 mm 0.00 in0.0 mm
06:10 AM 48.6°F9.2°C -13.9°F-25.5°C 7% 3.5 mph ESE5.6 kmh ESE 7.4 mph11.9 kmh 30.38 in1028.8 mb 0.00 in0.0 mm 0.00 in0.0 mm 0.00 in0.0 mm
06:05 AM 48.6°F9.2°C -15.6°F-26.4°C 6% 4.5 mph SE7.2 kmh SE 12.3 mph19.8 kmh 30.38 in1028.8 mb 0.00 in0.0 mm 0.00 in0.0 mm 0.00 in0.0 mm
06:00 AM 48.4°F9.1°C -15.5°F-26.4°C 6% 4.6 mph SSE7.4 kmh SSE 9.8 mph15.8 kmh 30.38 in1028.8 mb 0.00 in0.0 mm 0.00 in0.0 mm 0.00 in0.0 mm
05:55 AM 48.4°F9.1°C -15.9°F-26.6°C 6% 3.8 mph SSE6.1 kmh SSE 9.8 mph15.8 kmh 30.38 in1028.8 mb 0.00 in0.0 mm 0.00 in0.0 mm 0.00 in0.0 mm
05:50 AM 48.4°F9.1°C -18.3°F-27.9°C 5% 0.1 mph E0.2 kmh E 2.5 mph4.0 kmh 30.38 in1028.8 mb 0.00 in0.0 mm 0.00 in0.0 mm 0.00 in0.0 mm
05:45 AM 48.4°F9.1°C -19.4°F-28.6°C 5% 0.1 mph SE0.2 kmh SE 2.5 mph4.0 kmh 30.38 in1028.8 mb 0.00 in0.0 mm 0.00 in0.0 mm 0.00 in0.0 mm
05:40 AM 48.4°F9.1°C -23.3°F-30.7°C 4% 1.5 mph ENE2.4 kmh ENE 4.9 mph7.9 kmh 30.38 in1028.8 mb 0.00 in0.0 mm 0.00 in0.0 mm 0.00 in0.0 mm
05:35 AM 48.6°F9.2°C -26.2°F-32.3°C 4% 1.5 mph SE2.4 kmh SE 7.4 mph11.9 kmh 30.38 in1028.8 mb 0.00 in0.0 mm 0.00 in0.0 mm 0.00 in0.0 mm
05:30 AM 48.6°F9.2°C -28.2°F-33.4°C 3% 0.6 mph SSE1.0 kmh SSE 4.9 mph7.9 kmh 30.37 in1028.4 mb 0.00 in0.0 mm 0.00 in0.0 mm 0.00 in0.0 mm
05:25 AM 48.6°F9.2°C -33.6°F-36.4°C 2% 3.8 mph SE6.1 kmh SE 7.4 mph11.9 kmh 30.38 in1028.8 mb 0.00 in0.0 mm 0.00 in0.0 mm 0.00 in0.0 mm
05:20 AM 48.7°F9.3°C -33.1°F-36.2°C 2% 4.7 mph SE7.6 kmh SE 9.8 mph15.8 kmh 30.38 in1028.8 mb 0.00 in0.0 mm 0.00 in0.0 mm 0.00 in0.0 mm
05:15 AM 48.7°F9.3°C -27.0°F-32.8°C 3% 3.8 mph SE6.1 kmh SE 9.8 mph15.8 kmh 30.38 in1028.8 mb 0.00 in0.0 mm 0.00 in0.0 mm 0.00 in0.0 mm
05:10 AM 48.7°F9.3°C -31.5°F-35.3°C 3% 5.5 mph SE8.9 kmh SE 9.8 mph15.8 kmh 30.38 in1028.8 mb 0.00 in0.0 mm 0.00 in0.0 mm 0.00 in0.0 mm
05:05 AM 48.7°F9.3°C -29.3°F-34.1°C 3% 4.6 mph SE7.4 kmh SE 9.8 mph15.8 kmh 30.39 in1029.1 mb 0.00 in0.0 mm 0.00 in0.0 mm 0.00 in0.0 mm
05:00 AM 48.7°F9.3°C -30.3°F-34.6°C 3% 6.3 mph SE10.1 kmh SE 12.3 mph19.8 kmh 30.39 in1029.1 mb 0.00 in0.0 mm 0.00 in0.0 mm 0.00 in0.0 mm
04:55 AM 48.7°F9.3°C -28.7°F-33.7°C 3% 5.4 mph SE8.7 kmh SE 9.8 mph15.8 kmh 30.39 in1029.1 mb 0.00 in0.0 mm 0.00 in0.0 mm 0.00 in0.0 mm
04:50 AM 48.6°F9.2°C -25.5°F-31.9°C 4% 4.7 mph SE7.6 kmh SE 12.3 mph19.8 kmh 30.39 in1029.1 mb 0.00 in0.0 mm 0.00 in0.0 mm 0.00 in0.0 mm
04:45 AM 48.5°F9.2°C -24.5°F-31.4°C 4% 6.5 mph SE10.5 kmh SE 12.3 mph19.8 kmh 30.39 in1029.1 mb 0.00 in0.0 mm 0.00 in0.0 mm 0.00 in0.0 mm
04:40 AM 48.4°F9.1°C -20.9°F-29.4°C 5% 8.3 mph SE13.4 kmh SE 15.0 mph24.1 kmh 30.39 in1029.1 mb 0.00 in0.0 mm 0.00 in0.0 mm 0.00 in0.0 mm
04:35 AM 48.3°F9.1°C -16.6°F-27.0°C 6% 7.4 mph SE11.9 kmh SE 15.0 mph24.1 kmh 30.39 in1029.1 mb 0.00 in0.0 mm 0.00 in0.0 mm 0.00 in0.0 mm
04:30 AM 48.2°F9.0°C -15.4°F-26.3°C 6% 8.5 mph SE13.7 kmh SE 15.0 mph24.1 kmh 30.39 in1029.1 mb 0.00 in0.0 mm 0.00 in0.0 mm 0.00 in0.0 mm
04:25 AM 48.2°F9.0°C -13.1°F-25.1°C 7% 6.3 mph SE10.1 kmh SE 12.3 mph19.8 kmh 30.39 in1029.1 mb 0.00 in0.0 mm 0.00 in0.0 mm 0.00 in0.0 mm
04:20 AM 48.2°F9.0°C -13.0°F-25.0°C 7% 6.3 mph ESE10.1 kmh ESE 12.3 mph19.8 kmh 30.38 in1028.8 mb 0.00 in0.0 mm 0.00 in0.0 mm 0.00 in0.0 mm
04:15 AM 48.3°F9.1°C -15.0°F-26.1°C 6% 9.0 mph ESE14.5 kmh ESE 15.0 mph24.1 kmh 30.39 in1029.1 mb 0.00 in0.0 mm 0.00 in0.0 mm 0.00 in0.0 mm
04:10 AM 48.4°F9.1°C -12.1°F-24.5°C 7% 7.9 mph SE12.7 kmh SE 15.0 mph24.1 kmh 30.39 in1029.1 mb 0.00 in0.0 mm 0.00 in0.0 mm 0.00 in0.0 mm
04:05 AM 48.4°F9.1°C -10.8°F-23.8°C 8% 7.8 mph ESE12.6 kmh ESE 12.3 mph19.8 kmh 30.39 in1029.1 mb 0.00 in0.0 mm 0.00 in0.0 mm 0.00 in0.0 mm
04:00 AM 48.6°F9.2°C -12.3°F-24.6°C 7% 7.6 mph SE12.2 kmh SE 17.4 mph28.0 kmh 30.39 in1029.1 mb 0.00 in0.0 mm 0.00 in0.0 mm 0.00 in0.0 mm
03:55 AM 48.6°F9.2°C -12.3°F-24.6°C 7% 9.0 mph ESE14.5 kmh ESE 15.0 mph24.1 kmh 30.40 in1029.5 mb 0.00 in0.0 mm 0.00 in0.0 mm 0.00 in0.0 mm
03:50 AM 48.6°F9.2°C -12.8°F-24.9°C 7% 9.2 mph SE14.8 kmh SE 17.4 mph28.0 kmh 30.40 in1029.5 mb 0.00 in0.0 mm 0.00 in0.0 mm 0.00 in0.0 mm
03:45 AM 48.7°F9.3°C -10.3°F-23.5°C 8% 8.7 mph SE14.0 kmh SE 15.0 mph24.1 kmh 30.40 in1029.5 mb 0.00 in0.0 mm 0.00 in0.0 mm 0.00 in0.0 mm
03:40 AM 48.7°F9.3°C -9.9°F-23.3°C 8% 9.1 mph SE14.6 kmh SE 17.4 mph28.0 kmh 30.40 in1029.5 mb 0.00 in0.0 mm 0.00 in0.0 mm 0.00 in0.0 mm
03:35 AM 48.7°F9.3°C -9.0°F-22.8°C 8% 9.0 mph ESE14.5 kmh ESE 17.4 mph28.0 kmh 30.40 in1029.5 mb 0.00 in0.0 mm 0.00 in0.0 mm 0.00 in0.0 mm
03:30 AM 48.7°F9.3°C -5.7°F-20.9°C 10% 8.8 mph SE14.2 kmh SE 17.4 mph28.0 kmh 30.40 in1029.5 mb 0.00 in0.0 mm 0.00 in0.0 mm 0.00 in0.0 mm
03:25 AM 48.7°F9.3°C -5.7°F-20.9°C 10% 9.9 mph SE15.9 kmh SE 19.9 mph32.0 kmh 30.40 in1029.5 mb 0.00 in0.0 mm 0.00 in0.0 mm 0.00 in0.0 mm
03:20 AM 48.6°F9.2°C -5.5°F-20.8°C 10% 9.1 mph SE14.6 kmh SE 19.9 mph32.0 kmh 30.40 in1029.5 mb 0.00 in0.0 mm 0.00 in0.0 mm 0.00 in0.0 mm
03:15 AM 48.6°F9.2°C -5.5°F-20.8°C 10% 8.1 mph ESE13.0 kmh ESE 15.0 mph24.1 kmh 30.40 in1029.5 mb 0.00 in0.0 mm 0.00 in0.0 mm 0.00 in0.0 mm
03:10 AM 48.6°F9.2°C -6.6°F-21.4°C 9% 8.0 mph SE12.9 kmh SE 15.0 mph24.1 kmh 30.40 in1029.5 mb 0.00 in0.0 mm 0.00 in0.0 mm 0.00 in0.0 mm
03:05 AM 48.6°F9.2°C -7.6°F-22.0°C 9% 8.9 mph ESE14.3 kmh ESE 15.0 mph24.1 kmh 30.41 in1029.8 mb 0.00 in0.0 mm 0.00 in0.0 mm 0.00 in0.0 mm
03:00 AM 48.6°F9.2°C -9.3°F-22.9°C 8% 7.1 mph SE11.4 kmh SE 9.8 mph15.8 kmh 30.41 in1029.8 mb 0.00 in0.0 mm 0.00 in0.0 mm 0.00 in0.0 mm
02:55 AM 48.6°F9.2°C -11.2°F-24.0°C 8% 8.3 mph SE13.4 kmh SE 19.9 mph32.0 kmh 30.41 in1029.8 mb 0.00 in0.0 mm 0.00 in0.0 mm 0.00 in0.0 mm
02:50 AM 48.6°F9.2°C -13.2°F-25.1°C 7% 9.2 mph SE14.8 kmh SE 15.0 mph24.1 kmh 30.41 in1029.8 mb 0.00 in0.0 mm 0.00 in0.0 mm 0.00 in0.0 mm
02:45 AM 48.6°F9.2°C -13.3°F-25.2°C 7% 7.3 mph SE11.7 kmh SE 12.3 mph19.8 kmh 30.41 in1029.8 mb 0.00 in0.0 mm 0.00 in0.0 mm 0.00 in0.0 mm
02:40 AM 48.5°F9.2°C -14.4°F-25.8°C 6% 10.1 mph SE16.3 kmh SE 17.4 mph28.0 kmh 30.41 in1029.8 mb 0.00 in0.0 mm 0.00 in0.0 mm 0.00 in0.0 mm
02:35 AM 48.4°F9.1°C -12.6°F-24.8°C 7% 8.5 mph ESE13.7 kmh ESE 15.0 mph24.1 kmh 30.41 in1029.8 mb 0.00 in0.0 mm 0.00 in0.0 mm 0.00 in0.0 mm
02:30 AM 48.4°F9.1°C -13.0°F-25.0°C 7% 11.0 mph SE17.7 kmh SE 22.4 mph36.0 kmh 30.41 in1029.8 mb 0.00 in0.0 mm 0.00 in0.0 mm 0.00 in0.0 mm
02:25 AM 48.4°F9.1°C -10.1°F-23.4°C 8% 6.0 mph SE9.7 kmh SE 9.8 mph15.8 kmh 30.41 in1029.8 mb 0.00 in0.0 mm 0.00 in0.0 mm 0.00 in0.0 mm
02:20 AM 48.2°F9.0°C -10.0°F-23.3°C 8% 6.1 mph SE9.8 kmh SE 12.3 mph19.8 kmh 30.41 in1029.8 mb 0.00 in0.0 mm 0.00 in0.0 mm 0.00 in0.0 mm
02:15 AM 48.2°F9.0°C -9.0°F-22.8°C 9% 5.9 mph ESE9.5 kmh ESE 15.0 mph24.1 kmh 30.41 in1029.8 mb 0.00 in0.0 mm 0.00 in0.0 mm 0.00 in0.0 mm
02:10 AM 48.2°F9.0°C -8.7°F-22.6°C 9% 6.6 mph SE10.6 kmh SE 17.4 mph28.0 kmh 30.41 in1029.8 mb 0.00 in0.0 mm 0.00 in0.0 mm 0.00 in0.0 mm
02:05 AM 48.2°F9.0°C -7.9°F-22.2°C 9% 6.1 mph SE9.8 kmh SE 17.4 mph28.0 kmh 30.41 in1029.8 mb 0.00 in0.0 mm 0.00 in0.0 mm 0.00 in0.0 mm
02:00 AM 48.0°F8.9°C -9.4°F-23.0°C 8% 6.8 mph ESE10.9 kmh ESE 12.3 mph19.8 kmh 30.41 in1029.8 mb 0.00 in0.0 mm 0.00 in0.0 mm 0.00 in0.0 mm
01:55 AM 48.0°F8.9°C -9.5°F-23.1°C 8% 5.9 mph ESE9.5 kmh ESE 15.0 mph24.1 kmh 30.41 in1029.8 mb 0.00 in0.0 mm 0.00 in0.0 mm 0.00 in0.0 mm
01:50 AM 48.0°F8.9°C -8.2°F-22.3°C 9% 5.1 mph SE8.2 kmh SE 15.0 mph24.1 kmh 30.41 in1029.8 mb 0.00 in0.0 mm 0.00 in0.0 mm 0.00 in0.0 mm
01:45 AM 48.0°F8.9°C -10.3°F-23.5°C 8% 5.2 mph ESE8.4 kmh ESE 9.8 mph15.8 kmh 30.41 in1029.8 mb 0.00 in0.0 mm 0.00 in0.0 mm 0.00 in0.0 mm
01:40 AM 47.8°F8.8°C -10.7°F-23.7°C 8% 7.0 mph SE11.3 kmh SE 15.0 mph24.1 kmh 30.42 in1030.1 mb 0.00 in0.0 mm 0.00 in0.0 mm 0.00 in0.0 mm
01:35 AM 47.8°F8.8°C -10.6°F-23.7°C 8% 5.2 mph SE8.4 kmh SE 12.3 mph19.8 kmh 30.42 in1030.1 mb 0.00 in0.0 mm 0.00 in0.0 mm 0.00 in0.0 mm
01:30 AM 47.8°F8.8°C -10.6°F-23.7°C 8% 6.7 mph ESE10.8 kmh ESE 12.3 mph19.8 kmh 30.42 in1030.1 mb 0.00 in0.0 mm 0.00 in0.0 mm 0.00 in0.0 mm
01:25 AM 47.8°F8.8°C -10.1°F-23.4°C 8% 7.2 mph SE11.6 kmh SE 17.4 mph28.0 kmh 30.42 in1030.1 mb 0.00 in0.0 mm 0.00 in0.0 mm 0.00 in0.0 mm
01:20 AM 47.8°F8.8°C -9.8°F-23.2°C 8% 8.0 mph SE12.9 kmh SE 17.4 mph28.0 kmh 30.41 in1029.8 mb 0.00 in0.0 mm 0.00 in0.0 mm 0.00 in0.0 mm
01:15 AM 47.8°F8.8°C -7.5°F-21.9°C 9% 6.7 mph SE10.8 kmh SE 12.3 mph19.8 kmh 30.42 in1030.1 mb 0.00 in0.0 mm 0.00 in0.0 mm 0.00 in0.0 mm
01:10 AM 47.8°F8.8°C -5.4°F-20.8°C 10% 7.6 mph ESE12.2 kmh ESE 15.0 mph24.1 kmh 30.41 in1029.8 mb 0.00 in0.0 mm 0.00 in0.0 mm 0.00 in0.0 mm
01:05 AM 47.7°F8.7°C -5.5°F-20.8°C 10% 6.8 mph SE10.9 kmh SE 15.0 mph24.1 kmh 30.41 in1029.8 mb 0.00 in0.0 mm 0.00 in0.0 mm 0.00 in0.0 mm
01:00 AM 47.7°F8.7°C -5.2°F-20.7°C 10% 7.8 mph SE12.6 kmh SE 15.0 mph24.1 kmh 30.41 in1029.8 mb 0.00 in0.0 mm 0.00 in0.0 mm 0.00 in0.0 mm
12:55 AM 47.7°F8.7°C -4.8°F-20.4°C 11% 8.5 mph SE13.7 kmh SE 17.4 mph28.0 kmh 30.41 in1029.8 mb 0.00 in0.0 mm 0.00 in0.0 mm 0.00 in0.0 mm
12:50 AM 47.7°F8.7°C -4.2°F-20.1°C 11% 7.8 mph SE12.6 kmh SE 19.9 mph32.0 kmh 30.41 in1029.8 mb 0.00 in0.0 mm 0.00 in0.0 mm 0.00 in0.0 mm
12:45 AM 47.7°F8.7°C -4.2°F-20.1°C 11% 7.2 mph SE11.6 kmh SE 15.0 mph24.1 kmh 30.42 in1030.1 mb 0.00 in0.0 mm 0.00 in0.0 mm 0.00 in0.0 mm
12:40 AM 47.7°F8.7°C -3.4°F-19.7°C 11% 8.6 mph SE13.8 kmh SE 17.4 mph28.0 kmh 30.42 in1030.1 mb 0.00 in0.0 mm 0.00 in0.0 mm 0.00 in0.0 mm
12:35 AM 47.5°F8.6°C -3.2°F-19.6°C 12% 7.5 mph SE12.1 kmh SE 17.4 mph28.0 kmh 30.42 in1030.1 mb 0.00 in0.0 mm 0.00 in0.0 mm 0.00 in0.0 mm
12:30 AM 47.5°F8.6°C -2.9°F-19.4°C 12% 7.6 mph SE12.2 kmh SE 17.4 mph28.0 kmh 30.42 in1030.1 mb 0.00 in0.0 mm 0.00 in0.0 mm 0.00 in0.0 mm
12:25 AM 47.5°F8.6°C -2.4°F-19.1°C 12% 7.7 mph SE12.4 kmh SE 17.4 mph28.0 kmh 30.42 in1030.1 mb 0.00 in0.0 mm 0.00 in0.0 mm 0.00 in0.0 mm
12:20 AM 47.5°F8.6°C -1.3°F-18.5°C 13% 8.3 mph SE13.4 kmh SE 15.0 mph24.1 kmh 30.42 in1030.1 mb 0.00 in0.0 mm 0.00 in0.0 mm 0.00 in0.0 mm
12:15 AM 47.5°F8.6°C -0.2°F-17.9°C 13% 6.1 mph SE9.8 kmh SE 12.3 mph19.8 kmh 30.42 in1030.1 mb 0.00 in0.0 mm 0.00 in0.0 mm 0.00 in0.0 mm
12:10 AM 47.5°F8.6°C 0.7°F-17.4°C 14% 6.8 mph SE10.9 kmh SE 15.0 mph24.1 kmh 30.42 in1030.1 mb 0.00 in0.0 mm 0.00 in0.0 mm 0.00 in0.0 mm
12:05 AM 47.5°F8.6°C 0.7°F-17.4°C 14% 7.3 mph SE11.7 kmh SE 15.0 mph24.1 kmh 30.42 in1030.1 mb 0.00 in0.0 mm 0.00 in0.0 mm 0.00 in0.0 mm
12:00 AM 47.5°F8.6°C 0.6°F-17.4°C 14% 7.9 mph SE12.7 kmh SE 15.0 mph24.1 kmh 30.42 in1030.1 mb 0.00 in0.0 mm 0.00 in0.0 mm 0.00 in0.0 mm